createdAt,value
2019-04-11T00:01:03.861Z,97350.77
2019-04-11T00:03:33.498Z,97346.77
2019-04-11T00:06:03.363Z,97347.35
2019-04-11T00:08:32.248Z,97345.55
2019-04-11T00:11:01.756Z,97350.68
2019-04-11T00:13:33.422Z,97347.61
2019-04-11T00:16:01.417Z,97346.60
2019-04-11T00:18:30.423Z,97346.52
2019-04-11T00:21:00.310Z,97341.56
2019-04-11T00:23:30.231Z,97337.94
2019-04-11T00:26:00.048Z,97342.95
2019-04-11T00:28:29.878Z,97344.54
2019-04-11T00:30:58.896Z,97337.94
2019-04-11T00:33:27.704Z,97340.08
2019-04-11T00:35:56.485Z,97342.86
2019-04-11T00:38:25.723Z,97337.73
2019-04-11T00:40:54.852Z,97342.23
2019-04-11T00:43:31.678Z,97335.04
2019-04-11T00:45:54.197Z,97331.22
2019-04-11T00:48:23.866Z,97341.30
2019-04-11T00:50:53.806Z,97340.63
2019-04-11T00:53:22.706Z,97342.70
2019-04-11T00:55:51.696Z,97349.03
2019-04-11T00:58:21.334Z,97348.83
2019-04-11T01:00:51.111Z,97356.56
2019-04-11T01:03:20.208Z,97350.34
2019-04-11T01:05:51.970Z,97353.41
2019-04-11T01:08:21.833Z,97353.86
2019-04-11T01:10:51.784Z,97360.19
2019-04-11T01:13:20.962Z,97355.06
2019-04-11T01:16:01.519Z,97360.73
2019-04-11T01:18:30.386Z,97358.71
2019-04-11T01:20:59.860Z,97369.67
2019-04-11T01:23:29.180Z,97367.06
2019-04-11T01:25:59.081Z,97372.09
2019-04-11T01:28:28.911Z,97380.64
2019-04-11T01:31:06.999Z,97380.30
2019-04-11T01:33:35.994Z,97377.02
2019-04-11T01:36:04.948Z,97380.92
2019-04-11T01:38:36.629Z,97381.76
2019-04-11T01:41:06.579Z,97381.76
2019-04-11T01:43:35.776Z,97381.76
2019-04-11T01:46:05.662Z,97386.59
2019-04-11T01:48:43.868Z,97389.87
2019-04-11T01:51:14.277Z,97386.42
2019-04-11T01:53:43.583Z,97394.31
2019-04-11T01:56:14.819Z,97398.77
2019-04-11T01:58:43.748Z,97391.84
2019-04-11T02:01:32.652Z,97395.48
2019-04-11T02:04:09.859Z,97392.13
2019-04-11T02:06:38.671Z,97393.42
2019-04-11T02:09:12.001Z,97401.16
2019-04-11T02:11:41.540Z,97402.55
2019-04-11T02:14:16.135Z,97407.19
2019-04-11T02:16:41.167Z,97413.04
2019-04-11T02:19:10.206Z,97404.58
2019-04-11T02:21:40.224Z,97410.55
2019-04-11T02:24:27.929Z,97421.05
2019-04-11T02:27:04.120Z,97416.38
2019-04-11T02:29:33.378Z,97422.05
2019-04-11T02:32:05.162Z,97414.70
2019-04-11T02:34:32.893Z,97423.55
2019-04-11T02:37:02.416Z,97428.18
2019-04-11T02:39:33.394Z,97424.27
2019-04-11T02:42:03.717Z,97429.59
2019-04-11T02:44:52.723Z,97433.58
2019-04-11T02:47:09.877Z,97433.58
2019-04-11T02:49:35.227Z,97434.23
2019-04-11T02:52:04.548Z,97437.38
2019-04-11T02:54:34.457Z,97435.88
2019-04-11T02:57:03.471Z,97444.91
2019-04-11T02:59:32.532Z,97431.52
2019-04-11T03:02:01.851Z,97436.34
2019-04-11T03:04:31.539Z,97431.41
2019-04-11T03:07:00.553Z,97447.11
2019-04-11T03:09:31.121Z,97440.25
2019-04-11T03:12:00.400Z,97443.13
2019-04-11T03:14:46.102Z,97448.75
2019-04-11T03:17:12.047Z,97446.08
2019-04-11T03:19:44.067Z,97447.65
2019-04-11T03:22:03.109Z,97451.94
2019-04-11T03:24:33.432Z,97451.09
2019-04-11T03:27:04.809Z,97453.70
2019-04-11T03:29:35.416Z,97457.30
2019-04-11T03:32:51.960Z,97455.91
2019-04-11T03:35:23.201Z,97449.30
2019-04-11T03:37:26.222Z,97451.05
2019-04-11T03:39:57.246Z,97455.34
2019-04-11T03:42:22.158Z,97450.75
2019-04-11T03:44:44.102Z,97461.92
2019-04-11T03:47:26.492Z,97458.56
2019-04-11T03:49:46.741Z,97455.38
2019-04-11T03:52:12.112Z,97457.98
2019-04-11T03:54:42.613Z,97459.17
2019-04-11T03:57:13.360Z,97462.23
2019-04-11T03:59:43.783Z,97469.00
2019-04-11T04:02:14.640Z,97462.76
2019-04-11T04:04:44.146Z,97457.25
2019-04-11T04:07:16.518Z,97461.03
2019-04-11T04:09:46.234Z,97467.91
2019-04-11T04:12:15.589Z,97466.30
2019-04-11T04:14:56.126Z,97465.97
2019-04-11T04:17:53.089Z,97466.95
2019-04-11T04:20:39.599Z,97471.31
2019-04-11T04:23:16.686Z,97473.07
2019-04-11T04:25:49.240Z,97470.92
2019-04-11T04:28:19.155Z,97476.13
2019-04-11T04:30:49.374Z,97480.67
2019-04-11T04:33:20.162Z,97480.44
2019-04-11T04:35:49.592Z,97485.11
2019-04-11T04:38:19.045Z,97483.95
2019-04-11T04:41:00.422Z,97485.64
2019-04-11T04:43:19.493Z,97487.86
2019-04-11T04:46:06.599Z,97487.96
2019-04-11T04:48:23.093Z,97491.76
2019-04-11T04:50:52.366Z,97491.28
2019-04-11T04:53:23.445Z,97488.57
2019-04-11T04:55:52.812Z,97494.61
2019-04-11T04:58:24.022Z,97490.52
2019-04-11T05:00:58.563Z,97490.05
2019-04-11T05:03:27.342Z,97486.76
2019-04-11T05:05:56.302Z,97487.98
2019-04-11T05:08:26.959Z,97485.45
2019-04-11T05:10:58.832Z,97486.30
2019-04-11T05:13:27.996Z,97494.66
2019-04-11T05:16:06.837Z,97495.66
2019-04-11T05:18:30.369Z,97504.30
2019-04-11T05:21:01.131Z,97502.23
2019-04-11T05:23:29.900Z,97503.00
2019-04-11T05:25:59.980Z,97504.68
2019-04-11T05:28:29.802Z,97509.63
2019-04-11T05:30:58.667Z,97509.94
2019-04-11T05:33:27.509Z,97515.34
2019-04-11T05:35:56.486Z,97513.20
2019-04-11T05:38:25.426Z,97515.14
2019-04-11T05:40:54.640Z,97519.95
2019-04-11T05:43:28.101Z,97520.34
2019-04-11T05:45:55.210Z,97515.87
2019-04-11T05:48:45.231Z,97517.81
2019-04-11T05:51:18.563Z,97515.73
2019-04-11T05:53:46.075Z,97519.55
2019-04-11T05:56:17.779Z,97515.80
2019-04-11T05:58:47.716Z,97518.15
2019-04-11T06:01:27.874Z,97518.00
2019-04-11T06:04:00.502Z,97521.34
2019-04-11T06:06:40.323Z,97514.48
2019-04-11T06:09:15.908Z,97521.45
2019-04-11T06:11:58.429Z,97514.56
2019-04-11T06:14:52.339Z,97514.84
2019-04-11T06:17:23.876Z,97514.05
2019-04-11T06:20:11.149Z,97516.57
2019-04-11T06:22:46.209Z,97520.70
2019-04-11T06:25:46.319Z,97524.50
2019-04-11T06:28:24.301Z,97527.23
2019-04-11T06:31:18.199Z,97531.26
2019-04-11T06:33:54.815Z,97525.91
2019-04-11T06:36:46.898Z,97532.53
2019-04-11T06:39:36.314Z,97530.23
2019-04-11T06:42:27.560Z,97527.75
2019-04-11T06:45:09.717Z,97531.39
2019-04-11T06:47:53.378Z,97531.86
2019-04-11T06:50:28.078Z,97534.30
2019-04-11T06:52:58.197Z,97533.35
2019-04-11T06:55:45.252Z,97536.34
2019-04-11T06:58:19.284Z,97542.50
2019-04-11T07:00:53.618Z,97534.62
2019-04-11T07:03:29.240Z,97540.48
2019-04-11T07:05:59.194Z,97543.31
2019-04-11T07:08:39.128Z,97545.00
2019-04-11T07:11:09.454Z,97546.87
2019-04-11T07:13:50.339Z,97543.92
2019-04-11T07:16:20.213Z,97547.05
2019-04-11T07:19:09.201Z,97550.16
2019-04-11T07:21:41.918Z,97553.80
2019-04-11T07:24:47.818Z,97554.75
2019-04-11T07:27:18.114Z,97553.94
2019-04-11T07:29:56.824Z,97558.00
2019-04-11T07:32:29.873Z,97565.47
2019-04-11T07:35:30.222Z,97566.23
2019-04-11T07:37:59.308Z,97565.25
2019-04-11T07:41:08.848Z,97572.77
2019-04-11T07:43:41.161Z,97568.48
2019-04-11T07:46:29.213Z,97568.20
2019-04-11T07:49:08.344Z,97572.34
2019-04-11T07:51:51.406Z,97572.22
2019-04-11T07:54:25.923Z,97575.77
2019-04-11T07:57:19.789Z,97577.22
2019-04-11T08:00:34.955Z,97590.88
2019-04-11T08:03:19.156Z,97587.19
2019-04-11T08:06:17.110Z,97589.90
2019-04-11T08:09:18.775Z,97592.27
2019-04-11T08:11:56.195Z,97591.04
2019-04-11T08:14:42.478Z,97596.55
2019-04-11T08:17:35.723Z,97597.41
2019-04-11T08:20:15.541Z,97601.25
2019-04-11T08:22:59.173Z,97597.98
2019-04-11T08:25:47.983Z,97602.66
2019-04-11T08:28:18.524Z,97606.75
2019-04-11T08:30:59.429Z,97605.36
2019-04-11T08:33:30.615Z,97607.98
2019-04-11T08:36:09.371Z,97597.66
2019-04-11T08:38:38.395Z,97609.41
2019-04-11T08:41:32.338Z,97609.89
2019-04-11T08:44:05.609Z,97605.49
2019-04-11T08:46:40.338Z,97605.52
2019-04-11T08:49:28.518Z,97613.52
2019-04-11T08:52:07.641Z,97617.66
2019-04-11T08:54:57.622Z,97617.53
2019-04-11T08:57:49.853Z,97614.25
2019-04-11T09:00:51.179Z,97618.37
2019-04-11T09:03:37.805Z,97619.91
2019-04-11T09:06:18.697Z,97619.23
2019-04-11T09:09:07.287Z,97615.74
2019-04-11T09:11:45.137Z,97614.88
2019-04-11T09:14:38.120Z,97614.72
2019-04-11T09:17:32.605Z,97617.03
2019-04-11T09:20:23.409Z,97623.14
2019-04-11T09:23:07.054Z,97621.86
2019-04-11T09:25:56.586Z,97621.30
2019-04-11T09:28:41.789Z,97615.63
2019-04-11T09:31:45.687Z,97619.52
2019-04-11T09:34:44.246Z,97621.03
2019-04-11T09:37:46.252Z,97615.50
2019-04-11T09:40:39.516Z,97618.79
2019-04-11T09:43:28.292Z,97628.73
2019-04-11T09:46:22.068Z,97621.52
2019-04-11T09:49:18.470Z,97627.23
2019-04-11T09:52:09.985Z,97629.00
2019-04-11T09:55:23.415Z,97609.53
2019-04-11T09:58:02.860Z,97621.64
2019-04-11T10:01:01.683Z,97618.39
2019-04-11T10:03:34.696Z,97622.95
2019-04-11T10:06:36.743Z,97616.67
2019-04-11T10:09:15.524Z,97619.52
2019-04-11T10:12:04.588Z,97618.59
2019-04-11T10:14:43.901Z,97623.08
2019-04-11T10:17:33.906Z,97625.84
2019-04-11T10:20:09.084Z,97620.70
2019-04-11T10:23:17.238Z,97620.58
2019-04-11T10:25:56.081Z,97622.84
2019-04-11T10:28:50.196Z,97627.49
2019-04-11T10:31:22.192Z,97626.77
2019-04-11T10:34:21.687Z,97626.91
2019-04-11T10:37:23.455Z,97624.50
2019-04-11T10:40:17.791Z,97620.23
2019-04-11T10:42:55.972Z,97631.07
2019-04-11T10:46:05.525Z,97624.02
2019-04-11T10:48:47.070Z,97626.44
2019-04-11T10:51:39.761Z,97629.06
2019-04-11T10:54:09.691Z,97636.09
2019-04-11T10:57:03.912Z,97634.28
2019-04-11T10:59:34.777Z,97635.96
2019-04-11T11:02:25.601Z,97635.25
2019-04-11T11:04:56.992Z,97633.95
2019-04-11T11:07:35.455Z,97630.73
2019-04-11T11:10:14.043Z,97641.36
2019-04-11T11:13:04.227Z,97637.16
2019-04-11T11:15:51.694Z,97638.11
2019-04-11T11:19:15.630Z,97639.31
2019-04-11T11:21:25.981Z,97648.04
2019-04-11T11:24:16.277Z,97639.20
2019-04-11T11:26:57.958Z,97644.45
2019-04-11T11:29:51.687Z,97635.47
2019-04-11T11:32:36.286Z,97637.05
2019-04-11T11:35:32.058Z,97640.74
2019-04-11T11:38:19.918Z,97639.58
2019-04-11T11:41:22.579Z,97641.11
2019-04-11T11:43:57.510Z,97649.24
2019-04-11T11:46:59.830Z,97648.15
2019-04-11T11:49:44.937Z,97648.66
2019-04-11T11:52:22.864Z,97649.39
2019-04-11T11:55:02.100Z,97647.37
2019-04-11T11:58:03.435Z,97647.36
2019-04-11T12:00:38.848Z,97653.19
2019-04-11T12:03:30.997Z,97654.75
2019-04-11T12:06:03.051Z,97651.25
2019-04-11T12:09:06.502Z,97646.08
2019-04-11T12:11:36.112Z,97644.45
2019-04-11T12:14:24.281Z,97649.70
2019-04-11T12:17:19.271Z,97642.20
2019-04-11T12:20:04.817Z,97645.52
2019-04-11T12:22:28.497Z,97641.36
2019-04-11T12:25:09.195Z,97645.77
2019-04-11T12:27:54.764Z,97637.32
2019-04-11T12:30:41.887Z,97635.78
2019-04-11T12:33:31.644Z,97644.86
2019-04-11T12:36:10.623Z,97647.83
2019-04-11T12:38:48.032Z,97642.50
2019-04-11T12:41:23.503Z,97642.81
2019-04-11T12:44:20.797Z,97639.16
2019-04-11T12:47:20.967Z,97637.37
2019-04-11T12:50:08.926Z,97636.96
2019-04-11T12:52:53.438Z,97634.17
2019-04-11T12:55:44.871Z,97632.35
2019-04-11T12:58:40.626Z,97636.86
2019-04-11T13:01:26.100Z,97632.39
2019-04-11T13:04:12.712Z,97635.36
2019-04-11T13:07:15.918Z,97633.95
2019-04-11T13:09:53.735Z,97623.94
2019-04-11T13:12:38.519Z,97628.82
2019-04-11T13:15:17.011Z,97625.11
2019-04-11T13:17:51.826Z,97620.31
2019-04-11T13:20:50.845Z,97629.48
2019-04-11T13:23:40.441Z,97627.45
2019-04-11T13:26:34.463Z,97630.09
2019-04-11T13:29:29.377Z,97632.23
2019-04-11T13:32:19.001Z,97628.77
2019-04-11T13:34:49.516Z,97631.37
2019-04-11T13:37:42.826Z,97634.52
2019-04-11T13:40:33.823Z,97633.80
2019-04-11T13:43:25.790Z,97639.48
2019-04-11T13:46:13.714Z,97640.08
2019-04-11T13:49:01.920Z,97636.56
2019-04-11T13:51:48.635Z,97644.86
2019-04-11T13:54:42.747Z,97645.19
2019-04-11T13:57:38.816Z,97641.45
2019-04-11T14:00:45.121Z,97642.31
2019-04-11T14:03:44.992Z,97644.59
2019-04-11T14:06:35.996Z,97642.97
2019-04-11T14:09:36.420Z,97646.66
2019-04-11T14:12:17.953Z,97639.73
2019-04-11T14:14:54.793Z,97638.39
2019-04-11T14:42:01.135Z,97636.27
2019-04-11T14:44:31.881Z,97641.05
2019-04-11T14:47:26.645Z,97642.09
2019-04-11T14:50:01.748Z,97647.73
2019-04-11T14:52:47.273Z,97644.25
2019-04-11T14:55:21.719Z,97651.78
2019-04-11T14:58:07.708Z,97644.98
2019-04-11T15:00:49.206Z,97655.23
2019-04-11T15:03:43.450Z,97655.95
2019-04-11T15:06:19.396Z,97654.75
2019-04-11T15:09:02.705Z,97657.12
2019-04-11T15:12:10.443Z,97654.02
2019-04-11T15:14:57.242Z,97658.06
2019-04-11T15:17:36.210Z,97657.23
2019-04-11T15:20:26.543Z,97658.77
2019-04-11T15:23:08.725Z,97656.98
2019-04-11T15:26:08.977Z,97662.38
2019-04-11T15:28:56.101Z,97659.86
2019-04-11T15:31:59.522Z,97658.66
2019-04-11T15:34:41.672Z,97661.19
2019-04-11T15:37:35.590Z,97667.53
2019-04-11T15:40:10.521Z,97662.41
2019-04-11T15:42:56.919Z,97666.13
2019-04-11T15:45:35.903Z,97672.06
2019-04-11T15:48:35.829Z,97673.48
2019-04-11T15:51:22.273Z,97670.53
2019-04-11T15:54:06.878Z,97672.91
2019-04-11T15:56:56.819Z,97670.38
2019-04-11T15:59:56.626Z,97675.89
2019-04-11T16:02:44.543Z,97684.10
2019-04-11T16:05:47.686Z,97680.14
2019-04-11T16:08:32.013Z,97691.22
2019-04-11T16:11:33.606Z,97683.55
2019-04-11T16:14:21.529Z,97685.59
2019-04-11T16:17:13.926Z,97685.80
2019-04-11T16:19:48.884Z,97688.43
2019-04-11T16:22:55.054Z,97698.45
2019-04-11T16:28:38.248Z,97706.31
2019-04-11T16:31:09.845Z,97703.98
2019-04-11T16:34:01.303Z,97710.08
2019-04-11T16:37:07.662Z,97708.25
2019-04-11T16:39:55.606Z,97705.45
2019-04-11T16:42:45.361Z,97706.20
2019-04-11T16:45:40.100Z,97713.86
2019-04-11T16:48:09.165Z,97715.50
2019-04-11T16:50:38.172Z,97719.70
2019-04-11T16:53:10.513Z,97721.48
2019-04-11T16:55:42.072Z,97722.46
2019-04-11T16:58:09.974Z,97725.92
2019-04-11T17:00:39.017Z,97725.44
2019-04-11T17:03:10.202Z,97727.80
2019-04-11T17:05:41.110Z,97730.05
2019-04-11T17:08:33.137Z,97727.75
2019-04-11T17:11:13.301Z,97735.25
2019-04-11T17:13:42.549Z,97733.32
2019-04-11T17:16:14.555Z,97730.80
2019-04-11T17:18:43.629Z,97741.48
2019-04-11T17:21:12.768Z,97741.62
2019-04-11T17:23:41.935Z,97746.41
2019-04-11T17:26:12.699Z,97750.52
2019-04-11T17:28:44.133Z,97750.91
2019-04-11T17:31:14.963Z,97750.04
2019-04-11T17:33:44.142Z,97758.16
2019-04-11T17:36:13.182Z,97755.84
2019-04-11T17:38:42.529Z,97749.37
2019-04-11T17:41:12.106Z,97756.58
2019-04-11T17:43:46.682Z,97755.48
2019-04-11T17:46:14.315Z,97765.39
2019-04-11T17:48:43.416Z,97767.33
2019-04-11T17:51:13.747Z,97775.64
2019-04-11T17:53:43.675Z,97771.91
2019-04-11T17:56:14.396Z,97778.27
2019-04-11T17:58:46.428Z,97783.13
2019-04-11T18:01:17.012Z,97781.97
2019-04-11T18:03:46.042Z,97783.09
2019-04-11T18:06:17.123Z,97781.25
2019-04-11T18:08:46.695Z,97786.09
2019-04-11T18:11:15.652Z,97790.08
2019-04-11T18:13:44.472Z,97793.14
2019-04-11T18:16:13.400Z,97791.38
2019-04-11T18:18:42.194Z,97801.23
2019-04-11T18:21:12.820Z,97799.84
2019-04-11T18:23:41.800Z,97800.17
2019-04-11T18:26:10.788Z,97807.28
2019-04-11T18:28:39.688Z,97813.13
2019-04-11T18:31:08.596Z,97813.78
2019-04-11T18:33:37.542Z,97821.77
2019-04-11T18:36:06.933Z,97821.03
2019-04-11T18:38:35.881Z,97822.58
2019-04-11T18:41:04.974Z,97825.08
2019-04-11T18:43:33.937Z,97822.20
2019-04-11T18:46:02.871Z,97821.52
2019-04-11T18:48:31.797Z,97827.84
2019-04-11T18:51:01.031Z,97829.69
2019-04-11T18:53:32.503Z,97836.55
2019-04-11T18:56:01.958Z,97829.53
2019-04-11T18:58:43.963Z,97828.03
2019-04-11T19:01:23.539Z,97841.66
2019-04-11T19:04:17.436Z,97845.27
2019-04-11T19:06:56.360Z,97848.21
2019-04-11T19:50:21.821Z,97856.44
2019-04-11T19:55:52.443Z,97863.02
2019-04-11T19:58:27.123Z,97860.14
2019-04-11T20:01:13.287Z,97853.70
2019-04-11T20:03:56.249Z,97858.06
2019-04-11T20:06:51.414Z,97867.17
2019-04-11T20:09:38.287Z,97863.27
2019-04-11T20:28:28.861Z,97862.57
2019-04-11T20:31:35.469Z,97864.40
2019-04-11T20:34:09.159Z,97866.72
2019-04-11T20:36:56.467Z,97867.92
2019-04-11T20:39:26.531Z,97864.78
2019-04-11T20:44:49.492Z,97867.63
2019-04-11T20:53:22.992Z,97869.25
2019-04-11T20:56:02.568Z,97874.14
2019-04-11T20:58:35.151Z,97875.98
2019-04-11T21:01:05.210Z,97876.44
2019-04-11T21:03:38.708Z,97879.11
2019-04-11T21:06:07.880Z,97876.81
2019-04-11T21:08:36.990Z,97875.75
2019-04-11T21:11:09.828Z,97883.34
2019-04-11T21:13:39.073Z,97882.17
2019-04-11T21:16:14.671Z,97893.12
2019-04-11T21:18:43.955Z,97889.51
2019-04-11T21:21:13.139Z,97894.65
2019-04-11T21:23:43.792Z,97893.19
2019-04-11T21:26:13.031Z,97897.28
2019-04-11T21:28:42.215Z,97903.63
2019-04-11T21:31:11.388Z,97901.87
2019-04-11T21:33:40.417Z,97907.75
2019-04-11T21:36:09.675Z,97908.73
2019-04-11T21:38:41.973Z,97911.95
2019-04-11T21:41:12.753Z,97901.83
2019-04-11T21:43:41.967Z,97908.39
2019-04-11T21:46:11.182Z,97912.35
2019-04-11T21:48:40.211Z,97911.96
2019-04-11T21:51:11.352Z,97917.66
2019-04-11T21:53:46.587Z,97925.52
2019-04-11T21:56:15.920Z,97921.45
2019-04-11T21:58:49.916Z,97927.95
2019-04-11T22:01:18.194Z,97921.45
2019-04-11T22:03:47.288Z,97922.13
2019-04-11T22:06:16.222Z,97931.83
2019-04-11T22:08:45.394Z,97926.39
2019-04-11T22:11:14.385Z,97930.08
2019-04-11T22:13:43.523Z,97931.92
2019-04-11T22:16:14.196Z,97939.38
2019-04-11T22:18:44.347Z,97935.54
2019-04-11T22:21:15.554Z,97930.55
2019-04-11T22:23:49.107Z,97931.27
2019-04-11T22:26:17.845Z,97933.48
2019-04-11T22:28:47.056Z,97929.34
2019-04-11T22:31:16.194Z,97930.96
2019-04-11T22:33:59.150Z,97931.48
2019-04-11T22:36:30.629Z,97928.04
2019-04-11T22:39:01.031Z,97932.88
2019-04-11T22:41:30.171Z,97933.38
2019-04-11T22:43:59.260Z,97936.03
2019-04-11T22:46:28.339Z,97937.64
2019-04-11T22:48:58.460Z,97936.61
2019-04-11T22:51:30.320Z,97947.19
2019-04-11T22:54:01.843Z,97937.84
2019-04-11T22:56:30.975Z,97935.42
2019-04-11T22:59:00.049Z,97943.45
2019-04-11T23:01:29.264Z,97939.11
2019-04-11T23:04:00.307Z,97942.30
2019-04-11T23:06:29.334Z,97943.70
2019-04-11T23:08:58.405Z,97937.36
2019-04-11T23:11:27.443Z,97939.22
2019-04-11T23:13:56.692Z,97941.00
2019-04-11T23:16:25.797Z,97943.59
2019-04-11T23:18:54.863Z,97941.09
2019-04-11T23:21:23.895Z,97942.18
2019-04-11T23:23:53.032Z,97944.23
2019-04-11T23:26:22.032Z,97946.23
2019-04-11T23:28:51.251Z,97945.47
2019-04-11T23:31:21.120Z,97946.68
2019-04-11T23:33:51.982Z,97948.51
2019-04-11T23:36:21.978Z,97951.02
2019-04-11T23:38:52.602Z,97941.92
2019-04-11T23:41:21.965Z,97946.20
2019-04-11T23:43:50.926Z,97945.73
2019-04-11T23:46:22.483Z,97941.70
2019-04-11T23:48:54.762Z,97942.66
2019-04-11T23:51:25.313Z,97945.66
2019-04-11T23:53:53.348Z,97935.02
2019-04-11T23:56:23.991Z,97934.01
2019-04-11T23:58:53.181Z,97937.84
